createdAt,value
2023-03-16T00:00:52.540Z,95350.53
2023-03-16T00:03:20.290Z,95354.91
2023-03-16T00:05:51.832Z,95339.25
2023-03-16T00:08:19.467Z,95335.78
2023-03-16T00:10:47.166Z,95338.75
2023-03-16T00:13:18.847Z,95337.03
2023-03-16T00:15:56.062Z,95331.66
2023-03-16T00:18:27.841Z,95330.19
2023-03-16T00:20:55.547Z,95340.75
2023-03-16T00:23:29.095Z,95346.28
2023-03-16T00:26:00.281Z,95337.34
2023-03-16T00:28:28.202Z,95343.66
2023-03-16T00:30:59.287Z,95333.59
2023-03-16T00:33:27.159Z,95334.41
2023-03-16T00:36:02.205Z,95325.88
2023-03-16T00:38:32.061Z,95323.97
2023-03-16T00:40:58.925Z,95327.25
2023-03-16T00:43:27.360Z,95329.75
2023-03-16T00:46:06.482Z,95317.69
2023-03-16T00:48:38.632Z,95323.50
2023-03-16T00:51:07.768Z,95328.50
2023-03-16T00:53:36.192Z,95318.47
2023-03-16T00:56:04.395Z,95327.00
2023-03-16T00:58:35.904Z,95326.47
2023-03-16T01:01:07.640Z,95326.59
2023-03-16T01:03:35.007Z,95322.50
2023-03-16T01:06:11.643Z,95319.41
2023-03-16T01:08:39.580Z,95318.75
2023-03-16T01:11:11.354Z,95315.72
2023-03-16T01:13:39.707Z,95319.50
2023-03-16T01:16:07.768Z,95319.09
2023-03-16T01:18:34.780Z,95318.13
2023-03-16T01:21:03.617Z,95320.16
2023-03-16T01:23:32.999Z,95313.44
2023-03-16T01:26:00.313Z,95320.97
2023-03-16T01:28:30.079Z,95318.22
2023-03-16T01:31:11.517Z,95306.16
2023-03-16T01:33:39.034Z,95305.19
2023-03-16T01:36:12.050Z,95307.88
2023-03-16T01:38:48.451Z,95304.38
2023-03-16T01:41:16.061Z,95304.81
2023-03-16T01:43:43.783Z,95300.44
2023-03-16T01:46:18.234Z,95310.28
2023-03-16T01:49:20.103Z,95307.31
2023-03-16T01:51:53.100Z,95307.00
2023-03-16T01:54:24.344Z,95308.69
2023-03-16T01:56:58.273Z,95305.28
2023-03-16T01:59:30.692Z,95300.19
2023-03-16T02:01:59.035Z,95296.84
2023-03-16T02:04:42.341Z,95294.81
2023-03-16T02:07:10.949Z,95297.97
2023-03-16T02:09:46.453Z,95296.91
2023-03-16T02:12:18.005Z,95301.88
2023-03-16T02:14:50.002Z,95299.25
2023-03-16T02:17:20.808Z,95298.09
2023-03-16T02:19:47.390Z,95293.59
2023-03-16T02:22:14.704Z,95288.97
2023-03-16T02:24:42.055Z,95289.03
2023-03-16T02:27:17.798Z,95291.13
2023-03-16T02:29:52.845Z,95293.84
2023-03-16T02:32:21.897Z,95293.19
2023-03-16T02:34:48.674Z,95294.81
2023-03-16T02:37:15.488Z,95297.41
2023-03-16T02:39:45.449Z,95294.31
2023-03-16T02:42:21.854Z,95297.16
2023-03-16T02:44:55.589Z,95295.56
2023-03-16T02:47:42.554Z,95295.66
2023-03-16T02:50:12.382Z,95294.81
2023-03-16T02:52:39.568Z,95293.03
2023-03-16T02:55:08.240Z,95293.41
2023-03-16T02:57:35.216Z,95291.88
2023-03-16T03:00:17.512Z,95293.72
2023-03-16T03:02:46.649Z,95294.09
2023-03-16T03:05:13.535Z,95289.34
2023-03-16T03:07:40.719Z,95285.00
2023-03-16T03:10:08.986Z,95291.19
2023-03-16T03:12:35.732Z,95294.91
2023-03-16T03:15:06.344Z,95284.28
2023-03-16T03:17:40.447Z,95283.59
2023-03-16T03:20:13.792Z,95292.28
2023-03-16T03:22:40.903Z,95284.63
2023-03-16T03:25:09.063Z,95290.66
2023-03-16T03:27:36.048Z,95286.94
2023-03-16T03:30:06.667Z,95280.47
2023-03-16T03:32:33.309Z,95277.94
2023-03-16T03:34:59.923Z,95273.06
2023-03-16T03:37:26.916Z,95279.50
2023-03-16T03:39:53.470Z,95272.84
2023-03-16T03:42:20.534Z,95273.06
2023-03-16T03:44:47.135Z,95276.69
2023-03-16T03:47:13.943Z,95278.47
2023-03-16T03:49:40.963Z,95277.81
2023-03-16T03:52:07.773Z,95278.84
2023-03-16T03:54:34.949Z,95279.88
2023-03-16T03:57:06.055Z,95274.22
2023-03-16T03:59:33.214Z,95277.84
2023-03-16T04:02:02.796Z,95274.72
2023-03-16T04:04:41.193Z,95271.50
2023-03-16T04:07:10.322Z,95262.44
2023-03-16T04:09:37.021Z,95264.97
2023-03-16T04:12:05.999Z,95271.78
2023-03-16T04:14:33.673Z,95261.72
2023-03-16T04:17:04.950Z,95267.00
2023-03-16T04:19:33.863Z,95268.72
2023-03-16T04:22:00.571Z,95267.88
2023-03-16T04:24:27.380Z,95278.00
2023-03-16T04:26:54.306Z,95285.66
2023-03-16T04:29:21.463Z,95282.38
2023-03-16T04:31:48.143Z,95290.72
2023-03-16T04:34:15.668Z,95283.28
2023-03-16T04:36:42.606Z,95286.63
2023-03-16T04:39:10.633Z,95275.47
2023-03-16T04:41:37.967Z,95269.66
2023-03-16T04:44:13.620Z,95266.53
2023-03-16T04:46:41.108Z,95264.91
2023-03-16T04:49:10.277Z,95260.63
2023-03-16T04:51:40.528Z,95260.59
2023-03-16T04:54:09.783Z,95260.59
2023-03-16T04:56:41.621Z,95259.84
2023-03-16T04:59:28.020Z,95255.66
2023-03-16T05:02:08.233Z,95247.94
2023-03-16T05:04:35.290Z,95256.22
2023-03-16T05:07:02.623Z,95248.63
2023-03-16T05:09:34.040Z,95246.91
2023-03-16T05:12:01.453Z,95245.00
2023-03-16T05:14:29.378Z,95245.06
2023-03-16T05:17:14.750Z,95241.56
2023-03-16T05:19:43.049Z,95241.63
2023-03-16T05:22:10.503Z,95244.91
2023-03-16T05:24:39.481Z,95236.31
2023-03-16T05:27:06.557Z,95237.19
2023-03-16T05:29:34.334Z,95238.97
2023-03-16T05:32:01.047Z,95247.38
2023-03-16T05:34:28.918Z,95240.53
2023-03-16T05:36:55.604Z,95238.75
2023-03-16T05:39:23.612Z,95242.03
2023-03-16T05:41:50.740Z,95252.06
2023-03-16T05:44:27.682Z,95240.84
2023-03-16T05:47:06.544Z,95233.94
2023-03-16T05:49:37.160Z,95229.28
2023-03-16T05:52:08.535Z,95228.78
2023-03-16T05:54:35.950Z,95228.25
2023-03-16T05:57:03.143Z,95224.97
2023-03-16T05:59:31.268Z,95229.63
2023-03-16T06:01:58.522Z,95228.63
2023-03-16T06:04:26.230Z,95231.44
2023-03-16T06:06:53.054Z,95236.88
2023-03-16T06:09:22.403Z,95232.19
2023-03-16T06:11:49.004Z,95232.53
2023-03-16T06:14:17.403Z,95242.06
2023-03-16T06:16:45.235Z,95240.72
2023-03-16T06:19:13.559Z,95244.25
2023-03-16T06:21:40.278Z,95244.00
2023-03-16T06:24:09.830Z,95242.72
2023-03-16T06:26:37.110Z,95246.41
2023-03-16T06:29:06.447Z,95245.19
2023-03-16T06:31:36.275Z,95244.88
2023-03-16T06:34:03.413Z,95237.00
2023-03-16T06:36:31.006Z,95244.09
2023-03-16T06:39:00.586Z,95241.75
2023-03-16T06:41:38.168Z,95245.34
2023-03-16T06:44:06.130Z,95248.09
2023-03-16T06:46:35.967Z,95243.63
2023-03-16T06:49:04.547Z,95230.75
2023-03-16T06:51:32.214Z,95234.75
2023-03-16T06:53:59.001Z,95228.81
2023-03-16T06:56:28.037Z,95225.84
2023-03-16T06:58:55.798Z,95228.06
2023-03-16T07:01:23.045Z,95234.44
2023-03-16T07:03:49.995Z,95233.72
2023-03-16T07:06:24.876Z,95225.94
2023-03-16T07:08:51.753Z,95226.03
2023-03-16T07:11:19.945Z,95226.59
2023-03-16T07:13:46.857Z,95222.41
2023-03-16T07:16:15.447Z,95223.94
2023-03-16T07:18:44.361Z,95220.22
2023-03-16T07:21:12.558Z,95215.66
2023-03-16T07:23:40.479Z,95224.53
2023-03-16T07:26:08.701Z,95221.75
2023-03-16T07:28:39.957Z,95223.38
2023-03-16T07:31:08.164Z,95221.50
2023-03-16T07:33:38.580Z,95221.69
2023-03-16T07:36:10.580Z,95221.22
2023-03-16T07:38:42.641Z,95232.56
2023-03-16T07:41:10.920Z,95228.09
2023-03-16T07:43:38.185Z,95231.47
2023-03-16T07:46:05.466Z,95239.03
2023-03-16T07:48:32.604Z,95243.22
2023-03-16T07:51:03.827Z,95246.47
2023-03-16T07:53:32.096Z,95244.41
2023-03-16T07:56:18.573Z,95238.53
2023-03-16T07:58:49.930Z,95243.88
2023-03-16T08:01:16.598Z,95250.03
2023-03-16T08:03:44.649Z,95255.06
2023-03-16T08:06:12.158Z,95248.94
2023-03-16T08:08:38.928Z,95251.19
2023-03-16T08:11:06.503Z,95242.88
2023-03-16T08:13:47.223Z,95245.16
2023-03-16T08:16:14.874Z,95248.63
2023-03-16T08:18:43.901Z,95259.13
2023-03-16T08:21:10.883Z,95249.22
2023-03-16T08:23:37.561Z,95249.28
2023-03-16T08:26:08.821Z,95252.75
2023-03-16T08:28:36.494Z,95248.25
2023-03-16T08:31:08.766Z,95244.66
2023-03-16T08:33:41.397Z,95236.84
2023-03-16T08:36:11.855Z,95243.50
2023-03-16T08:38:40.096Z,95246.06
2023-03-16T08:41:09.697Z,95244.31
2023-03-16T08:43:37.567Z,95245.91
2023-03-16T08:46:05.537Z,95252.03
2023-03-16T08:48:43.190Z,95249.28
2023-03-16T08:51:11.738Z,95249.16
2023-03-16T08:53:38.384Z,95249.78
2023-03-16T08:56:11.360Z,95250.88
2023-03-16T08:58:39.402Z,95245.38
2023-03-16T09:01:06.718Z,95242.53
2023-03-16T09:03:34.858Z,95246.53
2023-03-16T09:06:03.705Z,95242.75
2023-03-16T09:08:30.690Z,95235.06
2023-03-16T09:11:05.670Z,95243.44
2023-03-16T09:13:35.159Z,95237.75
2023-03-16T09:16:03.001Z,95239.59
2023-03-16T09:18:29.625Z,95235.22
2023-03-16T09:21:01.314Z,95229.63
2023-03-16T09:23:29.159Z,95240.72
2023-03-16T09:26:03.123Z,95229.19
2023-03-16T09:28:34.045Z,95230.03
2023-03-16T09:31:01.322Z,95235.03
2023-03-16T09:33:29.993Z,95233.38
2023-03-16T09:35:57.616Z,95235.00
2023-03-16T09:38:28.641Z,95234.28
2023-03-16T09:41:15.092Z,95230.09
2023-03-16T09:43:44.559Z,95233.34
2023-03-16T09:46:15.221Z,95227.41
2023-03-16T09:48:42.273Z,95236.44
2023-03-16T09:51:23.053Z,95231.50
2023-03-16T09:53:56.597Z,95234.00
2023-03-16T09:57:01.818Z,95235.56
2023-03-16T10:00:24.510Z,95232.91
2023-03-16T10:03:42.093Z,95232.56
2023-03-16T10:09:14.843Z,95221.31
2023-03-16T10:11:46.304Z,95222.19
2023-03-16T10:14:31.732Z,95224.88
2023-03-16T10:17:46.720Z,95225.56
2023-03-16T10:20:17.606Z,95220.06
2023-03-16T10:22:46.517Z,95218.81
2023-03-16T10:25:25.368Z,95223.63
2023-03-16T10:27:53.020Z,95213.53
2023-03-16T10:30:28.735Z,95221.78
2023-03-16T10:33:00.507Z,95212.81
2023-03-16T10:35:38.083Z,95204.03
2023-03-16T10:38:04.682Z,95202.72
2023-03-16T10:40:33.362Z,95195.13
2023-03-16T10:43:13.863Z,95203.13
2023-03-16T10:45:42.979Z,95198.28
2023-03-16T10:48:14.875Z,95196.94
2023-03-16T10:50:50.597Z,95187.44
2023-03-16T10:53:26.440Z,95175.97
2023-03-16T10:55:59.335Z,95167.41
2023-03-16T10:58:30.701Z,95174.44
2023-03-16T11:00:57.783Z,95168.78
2023-03-16T11:03:38.780Z,95162.41
2023-03-16T11:06:07.707Z,95164.53
2023-03-16T11:08:37.348Z,95167.03
2023-03-16T11:11:34.028Z,95157.63
2023-03-16T11:14:04.588Z,95161.72
2023-03-16T11:16:40.182Z,95155.13
2023-03-16T11:19:14.840Z,95153.53
2023-03-16T11:22:12.579Z,95152.47
2023-03-16T11:25:05.953Z,95157.44
2023-03-16T11:27:57.825Z,95144.41
2023-03-16T11:30:30.976Z,95141.84
2023-03-16T11:33:00.599Z,95127.53
2023-03-16T11:35:58.126Z,95141.38
2023-03-16T11:38:37.610Z,95145.09
2023-03-16T11:41:10.716Z,95140.66
2023-03-16T11:43:45.132Z,95129.44
2023-03-16T11:46:15.487Z,95134.97
2023-03-16T11:48:53.383Z,95134.34
2023-03-16T11:51:42.325Z,95124.59
2023-03-16T11:54:43.445Z,95119.78
2023-03-16T11:57:37.978Z,95121.22
2023-03-16T12:00:15.095Z,95111.53
2023-03-16T12:03:06.721Z,95110.34
2023-03-16T12:05:46.066Z,95097.41
2023-03-16T12:08:32.484Z,95099.09
2023-03-16T12:11:23.321Z,95102.72
2023-03-16T12:14:02.089Z,95098.84
2023-03-16T12:16:48.780Z,95092.31
2023-03-16T12:19:22.975Z,95089.00
2023-03-16T12:22:01.229Z,95088.47
2023-03-16T12:24:35.775Z,95091.06
2023-03-16T12:27:02.589Z,95089.59
2023-03-16T12:30:03.954Z,95090.16
2023-03-16T12:32:45.222Z,95081.00
2023-03-16T12:35:47.388Z,95088.75
2023-03-16T12:38:24.171Z,95077.25
2023-03-16T12:41:12.894Z,95072.00
2023-03-16T12:43:50.323Z,95072.84
2023-03-16T12:46:26.217Z,95076.81
2023-03-16T12:48:57.694Z,95069.19
2023-03-16T12:51:43.290Z,95075.91
2023-03-16T12:54:25.408Z,95065.66
2023-03-16T12:57:25.188Z,95062.63
2023-03-16T12:59:58.384Z,95064.19
2023-03-16T13:02:30.517Z,95052.84
2023-03-16T13:05:02.745Z,95055.69
2023-03-16T13:07:31.752Z,95064.63
2023-03-16T13:10:12.406Z,95065.97
2023-03-16T13:12:41.698Z,95061.47
2023-03-16T13:15:17.942Z,95064.81
2023-03-16T13:17:45.063Z,95060.38
2023-03-16T13:20:30.805Z,95057.41
2023-03-16T13:23:18.553Z,95056.16
2023-03-16T13:26:03.998Z,95053.56
2023-03-16T13:28:34.403Z,95049.78
2023-03-16T13:31:02.883Z,95062.81
2023-03-16T13:33:38.249Z,95050.78
2023-03-16T13:36:09.096Z,95048.06
2023-03-16T13:38:36.201Z,95053.50
2023-03-16T13:41:10.773Z,95048.22
2023-03-16T13:43:44.154Z,95046.03
2023-03-16T13:46:21.320Z,95041.44
2023-03-16T13:48:51.272Z,95043.50
2023-03-16T13:51:20.926Z,95039.94
2023-03-16T13:53:49.304Z,95041.44
2023-03-16T13:56:19.253Z,95037.84
2023-03-16T13:58:49.909Z,95034.16
2023-03-16T14:01:25.990Z,95028.72
2023-03-16T14:03:55.104Z,95033.00
2023-03-16T14:06:27.283Z,95029.91
2023-03-16T14:08:58.853Z,95023.72
2023-03-16T14:11:26.932Z,95031.44
2023-03-16T14:13:56.592Z,95028.31
2023-03-16T14:16:26.072Z,95028.22
2023-03-16T14:19:02.825Z,95031.25
2023-03-16T14:21:32.195Z,95029.00
2023-03-16T14:24:02.407Z,95027.56
2023-03-16T14:26:41.748Z,95025.16
2023-03-16T14:29:21.922Z,95019.69
2023-03-16T14:31:48.587Z,95024.28
2023-03-16T14:34:21.395Z,95028.34
2023-03-16T14:36:48.635Z,95019.25
2023-03-16T14:39:20.131Z,95021.28
2023-03-16T14:41:52.130Z,95015.94
2023-03-16T14:44:25.291Z,95012.69
2023-03-16T14:46:56.350Z,95013.78
2023-03-16T14:49:25.929Z,95008.03
2023-03-16T14:51:58.378Z,95005.41
2023-03-16T14:54:27.564Z,95006.84
2023-03-16T14:57:08.255Z,95008.94
2023-03-16T14:59:35.088Z,95016.38
2023-03-16T15:02:04.336Z,95019.31
2023-03-16T15:04:34.605Z,95015.06
2023-03-16T15:07:07.103Z,95000.44
2023-03-16T15:09:40.418Z,94999.44
2023-03-16T15:12:19.544Z,95002.84
2023-03-16T15:15:05.981Z,94999.50
2023-03-16T15:17:33.060Z,95011.09
2023-03-16T15:19:59.760Z,95004.88
2023-03-16T15:22:36.928Z,94998.19
2023-03-16T15:25:11.782Z,94994.25
2023-03-16T15:27:38.415Z,94992.09
2023-03-16T15:30:14.910Z,94986.44
2023-03-16T15:32:41.803Z,94995.06
2023-03-16T15:35:08.924Z,95002.31
2023-03-16T15:37:37.328Z,94988.44
2023-03-16T15:40:25.983Z,94990.06
2023-03-16T15:42:53.393Z,94995.81
2023-03-16T15:45:22.336Z,94989.44
2023-03-16T15:47:50.870Z,94986.22
2023-03-16T15:50:21.813Z,94989.66
2023-03-16T15:53:13.270Z,94981.44
2023-03-16T15:55:47.116Z,94968.09
2023-03-16T15:58:24.348Z,94976.66
2023-03-16T16:00:57.598Z,94964.78
2023-03-16T16:03:25.976Z,94962.72
2023-03-16T16:05:53.383Z,94964.00
2023-03-16T16:08:20.837Z,94959.25
2023-03-16T16:10:50.859Z,94957.19
2023-03-16T16:13:22.277Z,94965.94
2023-03-16T16:15:50.068Z,94970.97
2023-03-16T16:18:35.073Z,94967.28
2023-03-16T16:21:04.089Z,94969.31
2023-03-16T16:23:32.531Z,94975.03
2023-03-16T16:26:04.478Z,94970.41
2023-03-16T16:28:33.435Z,94967.50
2023-03-16T16:31:04.251Z,94968.91
2023-03-16T16:33:33.900Z,94976.25
2023-03-16T16:36:02.988Z,94979.13
2023-03-16T16:38:30.219Z,94982.31
2023-03-16T16:40:59.334Z,94983.09
2023-03-16T16:43:35.042Z,94980.97
2023-03-16T16:46:06.444Z,94980.00
2023-03-16T16:48:39.348Z,94983.53
2023-03-16T16:51:07.211Z,94981.44
2023-03-16T16:53:33.874Z,94987.44
2023-03-16T16:56:01.215Z,94982.81
2023-03-16T16:58:27.944Z,94973.22
2023-03-16T17:00:58.129Z,94984.41
2023-03-16T17:03:29.490Z,94985.16
2023-03-16T17:05:58.359Z,94977.22
2023-03-16T17:08:26.356Z,94975.03
2023-03-16T17:10:54.263Z,94982.50
2023-03-16T17:13:32.718Z,94998.06
2023-03-16T17:16:00.159Z,94995.78
2023-03-16T17:18:27.088Z,95002.41
2023-03-16T17:20:53.797Z,95001.72
2023-03-16T17:23:26.545Z,95003.47
2023-03-16T17:25:55.177Z,95001.44
2023-03-16T17:28:22.384Z,94999.81
2023-03-16T17:30:49.597Z,94993.81
2023-03-16T17:33:19.212Z,94998.25
2023-03-16T17:35:47.735Z,95000.28
2023-03-16T17:38:21.977Z,95005.34
2023-03-16T17:40:51.063Z,95004.25
2023-03-16T17:43:20.920Z,95005.72
2023-03-16T17:45:50.622Z,95013.47
2023-03-16T17:48:22.919Z,95008.06
2023-03-16T17:50:51.448Z,95002.47
2023-03-16T17:53:19.842Z,95007.13
2023-03-16T17:55:46.966Z,95004.34
2023-03-16T17:58:29.586Z,95004.84
2023-03-16T18:00:57.447Z,95010.19
2023-03-16T18:03:30.502Z,95010.97
2023-03-16T18:05:57.444Z,95006.41
2023-03-16T18:08:30.081Z,95008.09
2023-03-16T18:10:59.985Z,95005.22
2023-03-16T18:13:36.130Z,95002.09
2023-03-16T18:16:05.886Z,94997.06
2023-03-16T18:18:36.481Z,95002.88
2023-03-16T18:21:04.345Z,95005.47
2023-03-16T18:23:33.929Z,94995.28
2023-03-16T18:26:03.543Z,94993.75
2023-03-16T18:28:31.479Z,94995.06
2023-03-16T18:30:59.279Z,94991.03
2023-03-16T18:33:28.560Z,94997.09
2023-03-16T18:35:58.488Z,94994.41
2023-03-16T18:38:38.284Z,94997.09
2023-03-16T18:41:16.029Z,94994.72
2023-03-16T18:43:42.912Z,94992.16
2023-03-16T18:46:34.601Z,94994.16
2023-03-16T18:49:19.050Z,94995.22
2023-03-16T18:51:52.434Z,94995.13
2023-03-16T18:54:29.150Z,94996.84
2023-03-16T18:56:58.704Z,95000.94
2023-03-16T18:59:26.189Z,94996.66
2023-03-16T19:01:53.512Z,94997.25
2023-03-16T19:04:22.856Z,94993.72
2023-03-16T19:06:52.081Z,95007.00
2023-03-16T19:09:31.150Z,95002.00
2023-03-16T19:11:58.172Z,95004.69
2023-03-16T19:14:27.483Z,95002.56
2023-03-16T19:16:55.186Z,94995.59
2023-03-16T19:19:23.428Z,94997.81
2023-03-16T19:21:52.781Z,94991.41
2023-03-16T19:24:31.986Z,94990.50
2023-03-16T19:26:58.672Z,94984.81
2023-03-16T19:29:33.377Z,94995.94
2023-03-16T19:32:01.187Z,94989.22
2023-03-16T19:34:28.104Z,94993.97
2023-03-16T19:36:54.906Z,94990.59
2023-03-16T19:39:21.506Z,94986.03
2023-03-16T19:41:54.300Z,94985.81
2023-03-16T19:44:23.625Z,94982.00
2023-03-16T19:46:50.509Z,94983.72
2023-03-16T19:49:22.846Z,94980.59
2023-03-16T19:51:53.815Z,94982.31
2023-03-16T19:54:20.328Z,94990.78
2023-03-16T19:56:47.568Z,94985.53
2023-03-16T19:59:14.689Z,94979.81
2023-03-16T20:01:41.996Z,94979.34
2023-03-16T20:04:21.153Z,94982.38
2023-03-16T20:06:49.871Z,94982.13
2023-03-16T20:09:17.442Z,94970.50
2023-03-16T20:11:45.204Z,94967.13
2023-03-16T20:14:23.710Z,94964.34
2023-03-16T20:16:51.063Z,94965.75
2023-03-16T20:19:18.775Z,94962.50
2023-03-16T20:21:46.831Z,94963.31
2023-03-16T20:24:19.181Z,94959.47
2023-03-16T20:26:48.377Z,94958.31
2023-03-16T20:29:32.606Z,94961.31
2023-03-16T20:32:00.762Z,94952.47
2023-03-16T20:34:30.739Z,94954.75
2023-03-16T20:36:57.921Z,94956.81
2023-03-16T20:39:24.659Z,94956.91
2023-03-16T20:41:52.480Z,94946.94
2023-03-16T20:44:21.276Z,94952.34
2023-03-16T20:46:48.117Z,94946.56
2023-03-16T20:49:34.038Z,94946.78
2023-03-16T20:52:00.903Z,94944.81
2023-03-16T20:54:27.890Z,94956.00
2023-03-16T20:56:54.990Z,94953.09
2023-03-16T20:59:24.901Z,94950.56
2023-03-16T21:01:54.513Z,94954.59
2023-03-16T21:04:27.579Z,94957.44
2023-03-16T21:06:55.690Z,94949.56
2023-03-16T21:09:22.536Z,94950.56
2023-03-16T21:11:49.965Z,94952.66
2023-03-16T21:14:20.413Z,94959.06
2023-03-16T21:16:47.775Z,94955.81
2023-03-16T21:19:17.388Z,94952.47
2023-03-16T21:21:45.453Z,94955.84
2023-03-16T21:24:12.501Z,94956.84
2023-03-16T21:26:42.265Z,94954.81
2023-03-16T21:29:17.857Z,94955.84
2023-03-16T21:31:44.506Z,94947.69
2023-03-16T21:34:26.508Z,94942.38
2023-03-16T21:36:53.198Z,94930.38
2023-03-16T21:39:22.619Z,94933.13
2023-03-16T21:41:50.615Z,94929.78
2023-03-16T21:44:18.543Z,94928.34
2023-03-16T21:46:47.878Z,94934.84
2023-03-16T21:49:15.723Z,94927.91
2023-03-16T21:51:43.386Z,94926.69
2023-03-16T21:54:17.105Z,94925.16
2023-03-16T21:56:44.359Z,94924.72
2023-03-16T21:59:11.497Z,94924.00
2023-03-16T22:01:50.887Z,94923.41
2023-03-16T22:04:25.229Z,94920.13
2023-03-16T22:06:52.192Z,94921.97
2023-03-16T22:09:20.741Z,94924.72
2023-03-16T22:11:48.002Z,94927.75
2023-03-16T22:14:14.560Z,94928.88
2023-03-16T22:16:41.780Z,94915.03
2023-03-16T22:19:12.871Z,94917.75
2023-03-16T22:21:43.301Z,94906.56
2023-03-16T22:24:16.712Z,94909.28
2023-03-16T22:26:43.459Z,94918.13
2023-03-16T22:29:23.769Z,94921.84
2023-03-16T22:31:53.870Z,94919.53
2023-03-16T22:34:23.454Z,94918.59
2023-03-16T22:36:50.193Z,94916.13
2023-03-16T22:39:16.985Z,94917.38
2023-03-16T22:41:43.538Z,94914.06
2023-03-16T22:44:22.720Z,94908.97
2023-03-16T22:46:50.764Z,94916.25
2023-03-16T22:49:22.121Z,94911.16
2023-03-16T22:51:51.416Z,94918.16
2023-03-16T22:54:21.499Z,94918.28
2023-03-16T22:56:48.493Z,94914.44
2023-03-16T22:59:20.563Z,94915.16
2023-03-16T23:01:49.200Z,94909.03
2023-03-16T23:04:19.133Z,94907.78
2023-03-16T23:06:47.387Z,94910.59
2023-03-16T23:09:15.380Z,94899.91
2023-03-16T23:11:44.411Z,94899.06
2023-03-16T23:14:22.834Z,94892.13
2023-03-16T23:16:52.686Z,94894.56
2023-03-16T23:19:27.630Z,94886.75
2023-03-16T23:21:56.680Z,94889.66
2023-03-16T23:24:23.763Z,94886.31
2023-03-16T23:26:51.106Z,94889.13
2023-03-16T23:29:17.757Z,94870.72
2023-03-16T23:31:44.527Z,94878.34
2023-03-16T23:34:13.334Z,94883.31
2023-03-16T23:36:40.122Z,94879.78
2023-03-16T23:39:07.407Z,94876.22
2023-03-16T23:41:35.106Z,94872.06
2023-03-16T23:44:02.739Z,94876.44
2023-03-16T23:46:29.994Z,94883.22
2023-03-16T23:49:01.402Z,94879.34
2023-03-16T23:51:30.558Z,94866.13
2023-03-16T23:53:58.554Z,94870.28
2023-03-16T23:56:27.024Z,94865.22
2023-03-16T23:58:54.655Z,94857.25
